Cameron, Oklahoma
Current Conditions -  °F | °C
As of 10:35 AM on Thursday 23 Oct 2014 (Local Time) from KRKR Reporting Station
Overcast Overcast  
Wind Chill: 60°   Ceiling: 11000
Heat Index: 60°   Visibility: 10mi
Dew Point: 52°   Wind: 0mph
Humidity: 74%   Direction: NA
Pressure: 30.2"   Gusts: NA
Location:  35.13°N, 94.53°W
Report Text: KRKR 231535Z AUTO 00000KT 10SM OVC110 16/11 A3020 RMK AO2 T01550109
Loading
Personal Weather Stations






























Interactive Weather Map
Tropical Storm Tracking
New forecast layout! Learn more

10-Day Weather Forecast

Advertisements
Track Severe Weather on mobile